sensor_id;sensor_type;location;lat;lon;timestamp;pressure;altitude;pressure_sealevel;temperature;humidity
75425;BME280;64007;50.632;13.700;2023-06-19T00:01:44;97850.66;;;16.25;100.00
75425;BME280;64007;50.632;13.700;2023-06-19T00:04:10;97841.94;;;16.23;100.00
75425;BME280;64007;50.632;13.700;2023-06-19T00:06:36;97841.59;;;16.18;100.00
75425;BME280;64007;50.632;13.700;2023-06-19T00:09:02;97843.78;;;16.14;100.00
75425;BME280;64007;50.632;13.700;2023-06-19T00:11:29;97838.41;;;16.14;100.00
75425;BME280;64007;50.632;13.700;2023-06-19T00:13:55;97844.09;;;16.11;100.00
75425;BME280;64007;50.632;13.700;2023-06-19T00:16:20;97835.72;;;16.06;100.00
75425;BME280;64007;50.632;13.700;2023-06-19T00:18:46;97835.72;;;16.06;100.00
75425;BME280;64007;50.632;13.700;2023-06-19T00:21:12;97837.06;;;16.10;100.00
75425;BME280;64007;50.632;13.700;2023-06-19T00:23:38;97840.22;;;16.06;100.00
75425;BME280;64007;50.632;13.700;2023-06-19T00:26:04;97836.03;;;16.03;100.00
75425;BME280;64007;50.632;13.700;2023-06-19T00:28:30;97831.69;;;16.02;100.00
75425;BME280;64007;50.632;13.700;2023-06-19T00:30:56;97834.66;;;15.99;100.00
75425;BME280;64007;50.632;13.700;2023-06-19T00:33:22;97834.13;;;15.95;100.00
75425;BME280;64007;50.632;13.700;2023-06-19T00:35:51;97836.97;;;15.94;100.00
75425;BME280;64007;50.632;13.700;2023-06-19T00:38:17;97833.63;;;15.92;100.00
75425;BME280;64007;50.632;13.700;2023-06-19T00:40:43;97834.78;;;15.89;100.00
75425;BME280;64007;50.632;13.700;2023-06-19T00:43:09;97821.53;;;15.88;100.00
75425;BME280;64007;50.632;13.700;2023-06-19T00:45:35;97831.09;;;15.90;100.00
75425;BME280;64007;50.632;13.700;2023-06-19T00:48:01;97819.53;;;15.90;100.00
75425;BME280;64007;50.632;13.700;2023-06-19T00:50:29;97822.22;;;15.90;100.00
75425;BME280;64007;50.632;13.700;2023-06-19T00:52:55;97820.72;;;15.87;100.00
75425;BME280;64007;50.632;13.700;2023-06-19T00:55:22;97818.50;;;15.83;100.00
75425;BME280;64007;50.632;13.700;2023-06-19T00:57:49;97824.72;;;15.83;100.00
75425;BME280;64007;50.632;13.700;2023-06-19T01:00:15;97828.72;;;15.79;100.00
75425;BME280;64007;50.632;13.700;2023-06-19T01:02:41;97829.56;;;15.80;100.00
75425;BME280;64007;50.632;13.700;2023-06-19T01:05:07;97835.75;;;15.80;100.00
75425;BME280;64007;50.632;13.700;2023-06-19T01:07:43;97829.25;;;15.83;100.00
75425;BME280;64007;50.632;13.700;2023-06-19T01:10:17;97826.41;;;15.84;100.00
75425;BME280;64007;50.632;13.700;2023-06-19T01:12:52;97832.59;;;15.85;100.00
75425;BME280;64007;50.632;13.700;2023-06-19T01:15:21;97824.56;;;15.85;100.00
75425;BME280;64007;50.632;13.700;2023-06-19T01:17:48;97826.56;;;15.83;100.00
75425;BME280;64007;50.632;13.700;2023-06-19T01:20:14;97821.88;;;15.85;100.00
75425;BME280;64007;50.632;13.700;2023-06-19T01:22:40;97821.88;;;15.85;100.00
75425;BME280;64007;50.632;13.700;2023-06-19T01:25:09;97823.88;;;15.83;100.00
75425;BME280;64007;50.632;13.700;2023-06-19T01:27:36;97828.72;;;15.79;100.00
75425;BME280;64007;50.632;13.700;2023-06-19T01:30:03;97821.69;;;15.78;100.00
75425;BME280;64007;50.632;13.700;2023-06-19T01:35:05;97824.84;;;15.74;100.00
75425;BME280;64007;50.632;13.700;2023-06-19T01:37:34;97823.16;;;15.73;100.00
75425;BME280;64007;50.632;13.700;2023-06-19T01:40:02;97810.78;;;15.72;100.00
75425;BME280;64007;50.632;13.700;2023-06-19T01:42:30;97816.13;;;15.72;100.00
75425;BME280;64007;50.632;13.700;2023-06-19T01:44:56;97810.50;;;15.91;100.00
75425;BME280;64007;50.632;13.700;2023-06-19T01:47:22;97812.63;;;15.79;100.00
75425;BME280;64007;50.632;13.700;2023-06-19T01:49:47;97808.44;;;15.77;100.00
75425;BME280;64007;50.632;13.700;2023-06-19T01:52:13;97804.75;;;15.78;100.00
75425;BME280;64007;50.632;13.700;2023-06-19T01:54:39;97810.81;;;15.88;100.00
75425;BME280;64007;50.632;13.700;2023-06-19T01:57:05;97805.28;;;15.81;100.00
75425;BME280;64007;50.632;13.700;2023-06-19T01:59:31;97808.13;;;15.88;100.00
75425;BME280;64007;50.632;13.700;2023-06-19T02:01:57;97811.16;;;15.85;100.00
75425;BME280;64007;50.632;13.700;2023-06-19T02:04:23;97811.16;;;15.85;100.00
75425;BME280;64007;50.632;13.700;2023-06-19T02:06:48;97807.94;;;15.81;100.00
75425;BME280;64007;50.632;13.700;2023-06-19T02:09:14;97804.09;;;15.84;100.00
75425;BME280;64007;50.632;13.700;2023-06-19T02:11:40;97806.63;;;15.85;100.00
75425;BME280;64007;50.632;13.700;2023-06-19T02:14:05;97797.06;;;15.83;100.00
75425;BME280;64007;50.632;13.700;2023-06-19T02:16:31;97795.06;;;15.85;100.00
75425;BME280;64007;50.632;13.700;2023-06-19T02:18:57;97799.44;;;15.94;100.00
75425;BME280;64007;50.632;13.700;2023-06-19T02:21:22;97797.09;;;15.91;100.00
75425;BME280;64007;50.632;13.700;2023-06-19T02:23:48;97794.72;;;15.88;100.00
75425;BME280;64007;50.632;13.700;2023-06-19T02:26:15;97797.09;;;15.91;100.00
75425;BME280;64007;50.632;13.700;2023-06-19T02:28:41;97793.75;;;15.97;100.00
75425;BME280;64007;50.632;13.700;2023-06-19T02:31:06;97794.06;;;15.94;100.00
75425;BME280;64007;50.632;13.700;2023-06-19T02:33:32;97793.72;;;15.89;100.00
75425;BME280;64007;50.632;13.700;2023-06-19T02:35:58;97795.91;;;15.85;100.00
75425;BME280;64007;50.632;13.700;2023-06-19T02:38:25;97792.03;;;15.80;100.00
75425;BME280;64007;50.632;13.700;2023-06-19T02:40:51;97786.66;;;15.80;100.00
75425;BME280;64007;50.632;13.700;2023-06-19T02:43:17;97792.03;;;15.80;100.00
75425;BME280;64007;50.632;13.700;2023-06-19T02:45:43;97790.69;;;15.76;100.00
75425;BME280;64007;50.632;13.700;2023-06-19T02:48:09;97795.19;;;15.75;100.00
75425;BME280;64007;50.632;13.700;2023-06-19T02:50:35;97789.69;;;15.77;100.00
75425;BME280;64007;50.632;13.700;2023-06-19T02:53:01;97791.69;;;15.75;100.00
75425;BME280;64007;50.632;13.700;2023-06-19T02:55:27;97790.16;;;15.72;100.00
75425;BME280;64007;50.632;13.700;2023-06-19T02:57:52;97805.94;;;15.75;100.00
75425;BME280;64007;50.632;13.700;2023-06-19T03:00:19;97794.88;;;15.78;100.00
75425;BME280;64007;50.632;13.700;2023-06-19T03:02:45;97790.03;;;15.82;100.00
75425;BME280;64007;50.632;13.700;2023-06-19T03:05:12;97782.34;;;15.87;100.00
75425;BME280;64007;50.632;13.700;2023-06-19T03:07:40;97789.03;;;15.91;100.00
75425;BME280;64007;50.632;13.700;2023-06-19T03:10:06;97783.34;;;15.94;100.00
75425;BME280;64007;50.632;13.700;2023-06-19T03:12:31;97785.53;;;15.98;100.00
75425;BME280;64007;50.632;13.700;2023-06-19T03:14:57;97785.75;;;16.05;100.00
75425;BME280;64007;50.632;13.700;2023-06-19T03:17:22;97780.91;;;16.17;100.00
75425;BME280;64007;50.632;13.700;2023-06-19T03:19:48;97789.63;;;16.27;100.00
75425;BME280;64007;50.632;13.700;2023-06-19T03:22:14;97789.47;;;16.28;100.00
75425;BME280;64007;50.632;13.700;2023-06-19T03:24:39;97797.19;;;16.32;100.00
75425;BME280;64007;50.632;13.700;2023-06-19T03:27:05;97791.50;;;16.35;100.00
75425;BME280;64007;50.632;13.700;2023-06-19T03:29:31;97801.72;;;16.39;100.00
75425;BME280;64007;50.632;13.700;2023-06-19T03:31:57;97800.25;;;16.45;100.00
75425;BME280;64007;50.632;13.700;2023-06-19T03:34:23;97800.06;;;16.54;100.00
75425;BME280;64007;50.632;13.700;2023-06-19T03:36:48;97803.78;;;16.53;100.00
75425;BME280;64007;50.632;13.700;2023-06-19T03:39:14;97797.91;;;16.50;100.00
75425;BME280;64007;50.632;13.700;2023-06-19T03:41:40;97803.09;;;16.51;100.00
75425;BME280;64007;50.632;13.700;2023-06-19T03:44:05;97799.28;;;16.70;100.00
75425;BME280;64007;50.632;13.700;2023-06-19T03:46:31;97802.25;;;16.59;100.00
75425;BME280;64007;50.632;13.700;2023-06-19T03:48:57;97798.75;;;16.58;100.00
75425;BME280;64007;50.632;13.700;2023-06-19T03:51:22;97799.91;;;16.56;100.00
75425;BME280;64007;50.632;13.700;2023-06-19T03:53:48;97791.69;;;16.57;100.00
75425;BME280;64007;50.632;13.700;2023-06-19T03:56:14;97787.34;;;16.56;100.00
75425;BME280;64007;50.632;13.700;2023-06-19T03:58:40;97790.34;;;16.61;100.00
75425;BME280;64007;50.632;13.700;2023-06-19T04:01:06;97801.94;;;16.62;100.00
75425;BME280;64007;50.632;13.700;2023-06-19T04:03:32;97803.44;;;16.65;100.00
75425;BME280;64007;50.632;13.700;2023-06-19T04:05:58;97801.28;;;16.76;100.00
75425;BME280;64007;50.632;13.700;2023-06-19T04:08:23;97806.34;;;16.87;100.00
75425;BME280;64007;50.632;13.700;2023-06-19T04:10:50;97800.47;;;16.84;100.00
75425;BME280;64007;50.632;13.700;2023-06-19T04:13:16;97802.63;;;16.88;100.00
75425;BME280;64007;50.632;13.700;2023-06-19T04:15:41;97797.59;;;16.94;100.00
75425;BME280;64007;50.632;13.700;2023-06-19T04:18:10;97809.00;;;17.04;100.00
75425;BME280;64007;50.632;13.700;2023-06-19T04:20:35;97810.81;;;17.28;100.00
75425;BME280;64007;50.632;13.700;2023-06-19T04:23:01;97812.84;;;17.26;100.00
75425;BME280;64007;50.632;13.700;2023-06-19T04:25:27;97815.84;;;17.31;100.00
75425;BME280;64007;50.632;13.700;2023-06-19T04:27:53;97813.47;;;17.36;100.00
75425;BME280;64007;50.632;13.700;2023-06-19T04:30:18;97812.56;;;17.60;100.00
75425;BME280;64007;50.632;13.700;2023-06-19T04:32:46;97814.25;;;17.52;100.00
75425;BME280;64007;50.632;13.700;2023-06-19T04:35:12;97823.69;;;17.48;100.00
75425;BME280;64007;50.632;13.700;2023-06-19T04:37:38;97831.94;;;17.47;100.00
75425;BME280;64007;50.632;13.700;2023-06-19T04:40:04;97826.06;;;17.43;100.00
75425;BME280;64007;50.632;13.700;2023-06-19T04:42:31;97829.72;;;17.50;100.00
75425;BME280;64007;50.632;13.700;2023-06-19T04:44:56;97818.63;;;17.62;100.00
75425;BME280;64007;50.632;13.700;2023-06-19T04:47:24;97823.66;;;17.65;100.00
75425;BME280;64007;50.632;13.700;2023-06-19T04:49:50;97824.00;;;17.70;100.00
75425;BME280;64007;50.632;13.700;2023-06-19T04:52:16;97824.31;;;17.75;100.00
75425;BME280;64007;50.632;13.700;2023-06-19T04:54:41;97826.50;;;17.79;100.00
75425;BME280;64007;50.632;13.700;2023-06-19T04:57:07;97825.78;;;17.85;100.00
75425;BME280;64007;50.632;13.700;2023-06-19T04:59:33;97834.22;;;17.82;96.59
75425;BME280;64007;50.632;13.700;2023-06-19T05:01:59;97840.78;;;17.80;100.00
75425;BME280;64007;50.632;13.700;2023-06-19T05:04:25;97845.97;;;17.81;100.00
75425;BME280;64007;50.632;13.700;2023-06-19T05:06:51;97851.19;;;17.83;100.00
75425;BME280;64007;50.632;13.700;2023-06-19T05:09:17;97840.41;;;17.83;100.00
75425;BME280;64007;50.632;13.700;2023-06-19T05:11:43;97843.59;;;17.87;100.00
75425;BME280;64007;50.632;13.700;2023-06-19T05:14:08;97846.59;;;17.92;100.00
75425;BME280;64007;50.632;13.700;2023-06-19T05:16:34;97842.00;;;18.08;100.00
75425;BME280;64007;50.632;13.700;2023-06-19T05:19:00;97852.09;;;18.06;100.00
75425;BME280;64007;50.632;13.700;2023-06-19T05:21:26;97850.09;;;18.00;100.00
75425;BME280;64007;50.632;13.700;2023-06-19T05:23:52;97850.09;;;18.00;98.82
75425;BME280;64007;50.632;13.700;2023-06-19T05:26:21;97851.81;;;18.01;98.20
75425;BME280;64007;50.632;13.700;2023-06-19T05:28:48;97854.09;;;18.12;96.29
75425;BME280;64007;50.632;13.700;2023-06-19T05:31:14;97850.25;;;18.07;96.51
75425;BME280;64007;50.632;13.700;2023-06-19T05:33:40;97855.47;;;18.08;97.32
75425;BME280;64007;50.632;13.700;2023-06-19T05:36:06;97860.31;;;18.13;98.53
75425;BME280;64007;50.632;13.700;2023-06-19T05:38:32;97864.16;;;18.19;99.12
75425;BME280;64007;50.632;13.700;2023-06-19T05:40:58;97861.78;;;18.24;98.57
75425;BME280;64007;50.632;13.700;2023-06-19T05:43:25;97860.41;;;18.28;98.35
75425;BME280;64007;50.632;13.700;2023-06-19T05:45:52;97867.56;;;18.43;100.00
75425;BME280;64007;50.632;13.700;2023-06-19T05:48:18;97864.06;;;18.35;99.58
75425;BME280;64007;50.632;13.700;2023-06-19T05:50:44;97867.75;;;18.34;99.04
75425;BME280;64007;50.632;13.700;2023-06-19T05:53:09;97879.38;;;18.34;99.30
75425;BME280;64007;50.632;13.700;2023-06-19T05:55:35;97884.06;;;18.40;98.72
75425;BME280;64007;50.632;13.700;2023-06-19T05:58:02;97886.19;;;18.53;94.60
75425;BME280;64007;50.632;13.700;2023-06-19T06:00:28;97881.63;;;18.62;95.72
75425;BME280;64007;50.632;13.700;2023-06-19T06:02:56;97887.66;;;18.64;98.76
75425;BME280;64007;50.632;13.700;2023-06-19T06:05:28;97896.56;;;18.64;97.21
75425;BME280;64007;50.632;13.700;2023-06-19T06:07:55;97891.31;;;18.71;97.27
75425;BME280;64007;50.632;13.700;2023-06-19T06:10:23;97892.78;;;18.82;95.37
75425;BME280;64007;50.632;13.700;2023-06-19T06:12:49;97900.81;;;18.90;92.76
75425;BME280;64007;50.632;13.700;2023-06-19T06:15:15;97897.19;;;18.97;91.35
75425;BME280;64007;50.632;13.700;2023-06-19T06:17:41;97904.56;;;19.03;92.07
75425;BME280;64007;50.632;13.700;2023-06-19T06:20:07;97908.03;;;19.12;87.19
75425;BME280;64007;50.632;13.700;2023-06-19T06:22:42;97900.94;;;19.34;83.54
75425;BME280;64007;50.632;13.700;2023-06-19T06:25:09;97905.94;;;19.22;85.83
75425;BME280;64007;50.632;13.700;2023-06-19T06:27:35;97909.06;;;19.11;86.83
75425;BME280;64007;50.632;13.700;2023-06-19T06:30:02;97916.19;;;19.04;89.42
75425;BME280;64007;50.632;13.700;2023-06-19T06:32:27;97917.84;;;19.05;86.65
75425;BME280;64007;50.632;13.700;2023-06-19T06:34:54;97912.88;;;19.17;87.54
75425;BME280;64007;50.632;13.700;2023-06-19T06:37:20;97913.59;;;19.33;88.34
75425;BME280;64007;50.632;13.700;2023-06-19T06:39:49;97915.13;;;19.51;87.59
75425;BME280;64007;50.632;13.700;2023-06-19T06:42:15;97919.66;;;19.73;87.76
75425;BME280;64007;50.632;13.700;2023-06-19T06:44:41;97913.34;;;19.95;88.44
75425;BME280;64007;50.632;13.700;2023-06-19T06:47:06;97914.94;;;20.19;87.53
75425;BME280;64007;50.632;13.700;2023-06-19T06:49:32;97916.53;;;20.43;86.52
75425;BME280;64007;50.632;13.700;2023-06-19T06:51:58;97918.69;;;20.84;80.15
75425;BME280;64007;50.632;13.700;2023-06-19T06:54:24;97923.91;;;20.71;80.79
75425;BME280;64007;50.632;13.700;2023-06-19T06:56:50;97926.22;;;20.74;81.01
75425;BME280;64007;50.632;13.700;2023-06-19T06:59:18;97927.38;;;20.64;81.02
75425;BME280;64007;50.632;13.700;2023-06-19T07:01:43;97928.16;;;20.80;78.72
75425;BME280;64007;50.632;13.700;2023-06-19T07:04:09;97922.75;;;20.80;83.48
75425;BME280;64007;50.632;13.700;2023-06-19T07:06:35;97918.31;;;20.72;82.00
75425;BME280;64007;50.632;13.700;2023-06-19T07:09:02;97918.03;;;20.82;83.07
75425;BME280;64007;50.632;13.700;2023-06-19T07:11:27;97917.38;;;20.80;79.88
75425;BME280;64007;50.632;13.700;2023-06-19T07:13:53;97918.38;;;20.79;80.35
75425;BME280;64007;50.632;13.700;2023-06-19T07:16:19;97918.28;;;21.08;82.52
75425;BME280;64007;50.632;13.700;2023-06-19T07:18:45;97916.88;;;21.27;74.79
75425;BME280;64007;50.632;13.700;2023-06-19T07:21:14;97914.56;;;21.52;77.95
75425;BME280;64007;50.632;13.700;2023-06-19T07:23:41;97913.47;;;21.68;70.82
75425;BME280;64007;50.632;13.700;2023-06-19T07:26:09;97915.91;;;21.90;72.65
75425;BME280;64007;50.632;13.700;2023-06-19T07:28:34;97916.28;;;22.09;69.04
75425;BME280;64007;50.632;13.700;2023-06-19T07:31:02;97906.59;;;22.34;71.49
75425;BME280;64007;50.632;13.700;2023-06-19T07:33:28;97911.56;;;22.24;65.67
75425;BME280;64007;50.632;13.700;2023-06-19T07:35:55;97915.03;;;21.83;69.33
75425;BME280;64007;50.632;13.700;2023-06-19T07:38:22;97914.22;;;21.89;71.45
75425;BME280;64007;50.632;13.700;2023-06-19T07:40:47;97915.41;;;21.80;68.68
75425;BME280;64007;50.632;13.700;2023-06-19T07:43:13;97913.59;;;21.87;71.99
75425;BME280;64007;50.632;13.700;2023-06-19T07:45:39;97906.88;;;22.05;72.96
75425;BME280;64007;50.632;13.700;2023-06-19T07:48:05;97905.72;;;22.27;70.27
75425;BME280;64007;50.632;13.700;2023-06-19T07:50:30;97909.59;;;22.46;69.75
75425;BME280;64007;50.632;13.700;2023-06-19T07:52:58;97904.41;;;22.58;69.66
75425;BME280;64007;50.632;13.700;2023-06-19T07:55:23;97909.66;;;22.66;69.89
75425;BME280;64007;50.632;13.700;2023-06-19T07:57:49;97905.50;;;22.70;68.74
75425;BME280;64007;50.632;13.700;2023-06-19T08:00:15;97905.72;;;22.75;69.02
75425;BME280;64007;50.632;13.700;2023-06-19T08:02:42;97903.84;;;22.75;62.81
75425;BME280;64007;50.632;13.700;2023-06-19T08:05:08;97907.97;;;22.65;65.61
75425;BME280;64007;50.632;13.700;2023-06-19T08:07:35;97904.81;;;22.55;65.46
75425;BME280;64007;50.632;13.700;2023-06-19T08:10:02;97902.94;;;22.48;64.85
75425;BME280;64007;50.632;13.700;2023-06-19T08:12:30;97901.69;;;22.10;67.25
75425;BME280;64007;50.632;13.700;2023-06-19T08:14:55;97910.31;;;21.99;68.30
75425;BME280;64007;50.632;13.700;2023-06-19T08:17:21;97916.38;;;22.01;68.88
75425;BME280;64007;50.632;13.700;2023-06-19T08:19:47;97913.16;;;22.12;69.39
75425;BME280;64007;50.632;13.700;2023-06-19T08:22:13;97913.00;;;22.20;67.92
75425;BME280;64007;50.632;13.700;2023-06-19T08:24:38;97909.53;;;22.39;69.81
75425;BME280;64007;50.632;13.700;2023-06-19T08:27:06;97923.00;;;22.67;69.85
75425;BME280;64007;50.632;13.700;2023-06-19T08:29:32;97915.59;;;22.89;66.81
75425;BME280;64007;50.632;13.700;2023-06-19T08:31:58;97915.84;;;23.21;67.59
75425;BME280;64007;50.632;13.700;2023-06-19T08:34:23;97920.72;;;23.58;68.69
75425;BME280;64007;50.632;13.700;2023-06-19T08:36:49;97923.22;;;23.93;67.04
75425;BME280;64007;50.632;13.700;2023-06-19T08:39:15;97912.72;;;24.23;65.90
75425;BME280;64007;50.632;13.700;2023-06-19T08:41:42;97914.75;;;24.41;64.61
75425;BME280;64007;50.632;13.700;2023-06-19T08:44:08;97909.13;;;24.49;57.26
75425;BME280;64007;50.632;13.700;2023-06-19T08:46:35;97916.25;;;24.23;62.07
75425;BME280;64007;50.632;13.700;2023-06-19T08:49:04;97908.94;;;24.30;63.03
75425;BME280;64007;50.632;13.700;2023-06-19T08:51:32;97899.94;;;24.36;62.75
75425;BME280;64007;50.632;13.700;2023-06-19T08:54:06;97903.50;;;24.44;62.68
75425;BME280;64007;50.632;13.700;2023-06-19T08:56:33;97911.22;;;24.47;61.73
75425;BME280;64007;50.632;13.700;2023-06-19T08:59:13;97913.09;;;24.46;61.52
75425;BME280;64007;50.632;13.700;2023-06-19T09:01:40;97922.66;;;24.62;62.85
75425;BME280;64007;50.632;13.700;2023-06-19T09:04:13;97925.06;;;24.77;62.92
75425;BME280;64007;50.632;13.700;2023-06-19T09:06:53;97925.66;;;24.92;57.49
75425;BME280;64007;50.632;13.700;2023-06-19T09:09:19;97921.78;;;24.68;60.66
75425;BME280;64007;50.632;13.700;2023-06-19T09:14:38;97913.53;;;24.36;59.28
75425;BME280;64007;50.632;13.700;2023-06-19T09:17:09;97916.88;;;24.38;57.50
75425;BME280;64007;50.632;13.700;2023-06-19T09:19:35;97919.19;;;24.28;59.71
75425;BME280;64007;50.632;13.700;2023-06-19T09:22:06;97916.88;;;24.25;61.08
75425;BME280;64007;50.632;13.700;2023-06-19T09:24:39;97916.31;;;24.75;67.55
75425;BME280;64007;50.632;13.700;2023-06-19T09:29:45;97908.84;;;25.65;64.00
75425;BME280;64007;50.632;13.700;2023-06-19T09:32:22;97909.69;;;25.90;59.72
75425;BME280;64007;50.632;13.700;2023-06-19T09:34:50;97904.81;;;25.74;56.05
75425;BME280;64007;50.632;13.700;2023-06-19T09:37:23;97897.88;;;25.46;55.82
75425;BME280;64007;50.632;13.700;2023-06-19T09:39:56;97909.22;;;25.43;57.02
75425;BME280;64007;50.632;13.700;2023-06-19T09:44:59;97896.41;;;25.19;56.12
75425;BME280;64007;50.632;13.700;2023-06-19T09:47:31;97895.00;;;25.10;54.19
75425;BME280;64007;50.632;13.700;2023-06-19T09:49:57;97885.63;;;25.06;53.60
75425;BME280;64007;50.632;13.700;2023-06-19T09:52:23;97895.50;;;24.93;54.97
75425;BME280;64007;50.632;13.700;2023-06-19T09:54:51;97896.13;;;25.34;52.45
75425;BME280;64007;50.632;13.700;2023-06-19T09:57:17;97894.09;;;25.47;54.04
75425;BME280;64007;50.632;13.700;2023-06-19T09:59:46;97890.28;;;25.30;53.13
75425;BME280;64007;50.632;13.700;2023-06-19T10:02:13;97897.16;;;25.33;49.58
75425;BME280;64007;50.632;13.700;2023-06-19T10:04:45;97895.78;;;25.48;53.63
75425;BME280;64007;50.632;13.700;2023-06-19T10:07:20;97902.56;;;25.39;49.69
75425;BME280;64007;50.632;13.700;2023-06-19T10:10:05;97896.59;;;25.24;52.26
75425;BME280;64007;50.632;13.700;2023-06-19T10:12:43;97907.63;;;24.97;52.79
75425;BME280;64007;50.632;13.700;2023-06-19T10:15:11;97899.47;;;24.97;53.54
75425;BME280;64007;50.632;13.700;2023-06-19T10:17:38;97902.69;;;25.19;52.28
75425;BME280;64007;50.632;13.700;2023-06-19T10:22:52;97901.00;;;25.50;54.44
75425;BME280;64007;50.632;13.700;2023-06-19T10:25:26;97898.19;;;25.63;52.99
75425;BME280;64007;50.632;13.700;2023-06-19T10:27:52;97895.38;;;25.95;49.99
75425;BME280;64007;50.632;13.700;2023-06-19T10:30:20;97895.03;;;25.66;51.59
75425;BME280;64007;50.632;13.700;2023-06-19T10:32:49;97897.03;;;25.21;52.30
75425;BME280;64007;50.632;13.700;2023-06-19T10:35:16;97892.72;;;25.07;53.45
75425;BME280;64007;50.632;13.700;2023-06-19T10:37:43;97902.41;;;24.96;56.33
75425;BME280;64007;50.632;13.700;2023-06-19T10:40:09;97903.16;;;25.10;54.81
75425;BME280;64007;50.632;13.700;2023-06-19T10:42:36;97897.50;;;25.11;53.87
75425;BME280;64007;50.632;13.700;2023-06-19T10:45:04;97890.13;;;25.18;54.32
75425;BME280;64007;50.632;13.700;2023-06-19T10:47:35;97890.72;;;25.27;51.51
75425;BME280;64007;50.632;13.700;2023-06-19T10:50:01;97890.72;;;25.52;55.31
75425;BME280;64007;50.632;13.700;2023-06-19T10:52:29;97884.16;;;25.59;55.04
75425;BME280;64007;50.632;13.700;2023-06-19T10:54:56;97884.69;;;25.75;59.88
75425;BME280;64007;50.632;13.700;2023-06-19T10:57:31;97885.47;;;25.82;54.09
75425;BME280;64007;50.632;13.700;2023-06-19T10:59:58;97888.13;;;26.50;59.23
75425;BME280;64007;50.632;13.700;2023-06-19T11:02:24;97875.31;;;26.99;62.36
75425;BME280;64007;50.632;13.700;2023-06-19T11:04:56;97867.00;;;27.35;50.13
75425;BME280;64007;50.632;13.700;2023-06-19T11:07:22;97865.66;;;27.26;47.72
75425;BME280;64007;50.632;13.700;2023-06-19T11:09:51;97865.19;;;27.29;49.75
75425;BME280;64007;50.632;13.700;2023-06-19T11:12:20;97865.94;;;27.60;47.38
75425;BME280;64007;50.632;13.700;2023-06-19T11:14:47;97868.25;;;27.21;47.60
75425;BME280;64007;50.632;13.700;2023-06-19T11:17:13;97879.53;;;26.95;49.82
75425;BME280;64007;50.632;13.700;2023-06-19T11:19:39;97873.00;;;26.66;49.61
75425;BME280;64007;50.632;13.700;2023-06-19T11:22:07;97868.63;;;26.95;52.90
75425;BME280;64007;50.632;13.700;2023-06-19T11:24:33;97871.88;;;27.57;48.88
75425;BME280;64007;50.632;13.700;2023-06-19T11:26:59;97868.84;;;27.76;48.22
75425;BME280;64007;50.632;13.700;2023-06-19T11:29:26;97867.47;;;27.56;45.43
75425;BME280;64007;50.632;13.700;2023-06-19T11:32:05;97868.16;;;27.28;47.80
75425;BME280;64007;50.632;13.700;2023-06-19T11:34:35;97866.13;;;27.23;48.38
75425;BME280;64007;50.632;13.700;2023-06-19T11:37:18;97862.22;;;27.31;46.61
75425;BME280;64007;50.632;13.700;2023-06-19T11:39:45;97856.53;;;27.32;47.90
75425;BME280;64007;50.632;13.700;2023-06-19T11:42:11;97864.28;;;27.59;48.78
75425;BME280;64007;50.632;13.700;2023-06-19T11:44:55;97869.56;;;27.72;43.58
75425;BME280;64007;50.632;13.700;2023-06-19T11:47:21;97868.84;;;27.65;46.53
75425;BME280;64007;50.632;13.700;2023-06-19T11:49:53;97853.66;;;27.69;49.03
75425;BME280;64007;50.632;13.700;2023-06-19T11:52:19;97864.06;;;27.95;47.62
75425;BME280;64007;50.632;13.700;2023-06-19T11:54:45;97866.22;;;27.93;44.76
75425;BME280;64007;50.632;13.700;2023-06-19T11:57:11;97848.75;;;27.83;46.16
75425;BME280;64007;50.632;13.700;2023-06-19T11:59:41;97852.09;;;27.73;42.59
75425;BME280;64007;50.632;13.700;2023-06-19T12:02:08;97852.91;;;27.62;45.86
75425;BME280;64007;50.632;13.700;2023-06-19T12:04:34;97852.16;;;27.55;42.50
75425;BME280;64007;50.632;13.700;2023-06-19T12:07:01;97852.06;;;28.08;44.26
75425;BME280;64007;50.632;13.700;2023-06-19T12:09:27;97850.72;;;28.74;41.84
75425;BME280;64007;50.632;13.700;2023-06-19T12:11:56;97849.06;;;29.30;43.31
75425;BME280;64007;50.632;13.700;2023-06-19T12:14:21;97852.22;;;30.06;42.33
75425;BME280;64007;50.632;13.700;2023-06-19T12:16:47;97851.16;;;30.29;38.71
75425;BME280;64007;50.632;13.700;2023-06-19T12:19:13;97846.53;;;30.34;40.42
75425;BME280;64007;50.632;13.700;2023-06-19T12:21:39;97847.63;;;30.33;39.56
75425;BME280;64007;50.632;13.700;2023-06-19T12:24:05;97855.22;;;29.54;41.01
75425;BME280;64007;50.632;13.700;2023-06-19T12:26:31;97846.69;;;29.05;42.84
75425;BME280;64007;50.632;13.700;2023-06-19T12:29:02;97846.06;;;28.75;42.25
75425;BME280;64007;50.632;13.700;2023-06-19T12:31:30;97848.81;;;28.75;42.87
75425;BME280;64007;50.632;13.700;2023-06-19T12:33:56;97851.59;;;28.63;42.93
75425;BME280;64007;50.632;13.700;2023-06-19T12:36:22;97846.31;;;28.45;45.25
75425;BME280;64007;50.632;13.700;2023-06-19T12:38:48;97850.50;;;28.00;46.51
75425;BME280;64007;50.632;13.700;2023-06-19T12:41:14;97847.44;;;27.97;44.93
75425;BME280;64007;50.632;13.700;2023-06-19T12:43:40;97849.22;;;27.91;47.44
75425;BME280;64007;50.632;13.700;2023-06-19T12:46:07;97843.63;;;28.09;46.61
75425;BME280;64007;50.632;13.700;2023-06-19T12:48:32;97839.59;;;28.24;46.62
75425;BME280;64007;50.632;13.700;2023-06-19T12:50:58;97827.69;;;28.30;42.81
75425;BME280;64007;50.632;13.700;2023-06-19T12:53:24;97832.81;;;28.26;43.01
75425;BME280;64007;50.632;13.700;2023-06-19T12:55:56;97830.94;;;28.03;42.50
75425;BME280;64007;50.632;13.700;2023-06-19T12:58:22;97834.13;;;28.24;43.24